sensor_id;sensor_type;location;lat;lon;timestamp;P1;durP1;ratioP1;P2;durP2;ratioP2
70416;SDS011;57839;51.332;12.410;2023-11-21T00:00:09;316.42;;;303.63;;
70416;SDS011;57839;51.332;12.410;2023-11-21T00:02:38;289.85;;;277.10;;
70416;SDS011;57839;51.332;12.410;2023-11-21T00:05:06;312.52;;;299.65;;
70416;SDS011;57839;51.332;12.410;2023-11-21T00:07:33;300.33;;;288.38;;
70416;SDS011;57839;51.332;12.410;2023-11-21T00:09:59;295.98;;;283.88;;
70416;SDS011;57839;51.332;12.410;2023-11-21T00:12:24;294.10;;;282.02;;
70416;SDS011;57839;51.332;12.410;2023-11-21T00:14:50;265.73;;;254.82;;
70416;SDS011;57839;51.332;12.410;2023-11-21T00:17:15;244.93;;;235.00;;
70416;SDS011;57839;51.332;12.410;2023-11-21T00:19:41;277.67;;;266.08;;
70416;SDS011;57839;51.332;12.410;2023-11-21T00:22:08;282.55;;;270.75;;
70416;SDS011;57839;51.332;12.410;2023-11-21T00:24:34;313.75;;;300.45;;
70416;SDS011;57839;51.332;12.410;2023-11-21T00:27:00;330.58;;;317.08;;
70416;SDS011;57839;51.332;12.410;2023-11-21T00:29:25;254.38;;;243.75;;
70416;SDS011;57839;51.332;12.410;2023-11-21T00:31:51;251.00;;;240.07;;
70416;SDS011;57839;51.332;12.410;2023-11-21T00:34:17;247.80;;;237.27;;
70416;SDS011;57839;51.332;12.410;2023-11-21T00:36:42;224.85;;;215.35;;
70416;SDS011;57839;51.332;12.410;2023-11-21T00:39:08;223.45;;;214.45;;
70416;SDS011;57839;51.332;12.410;2023-11-21T00:41:33;242.02;;;231.88;;
70416;SDS011;57839;51.332;12.410;2023-11-21T00:44:01;271.00;;;260.15;;
70416;SDS011;57839;51.332;12.410;2023-11-21T00:46:26;268.85;;;257.67;;
70416;SDS011;57839;51.332;12.410;2023-11-21T00:48:54;247.77;;;237.02;;
70416;SDS011;57839;51.332;12.410;2023-11-21T00:51:19;277.00;;;264.52;;
70416;SDS011;57839;51.332;12.410;2023-11-21T00:53:45;273.13;;;261.92;;
70416;SDS011;57839;51.332;12.410;2023-11-21T00:56:11;240.27;;;230.27;;
70416;SDS011;57839;51.332;12.410;2023-11-21T00:58:37;279.42;;;267.55;;
70416;SDS011;57839;51.332;12.410;2023-11-21T01:01:02;306.02;;;293.35;;
70416;SDS011;57839;51.332;12.410;2023-11-21T01:03:28;276.45;;;264.42;;
70416;SDS011;57839;51.332;12.410;2023-11-21T01:05:54;225.40;;;215.45;;
70416;SDS011;57839;51.332;12.410;2023-11-21T01:08:19;232.88;;;222.95;;
70416;SDS011;57839;51.332;12.410;2023-11-21T01:10:45;277.33;;;265.38;;
70416;SDS011;57839;51.332;12.410;2023-11-21T01:13:10;182.07;;;174.13;;
70416;SDS011;57839;51.332;12.410;2023-11-21T01:15:36;265.27;;;254.38;;
70416;SDS011;57839;51.332;12.410;2023-11-21T01:18:01;246.85;;;236.07;;
70416;SDS011;57839;51.332;12.410;2023-11-21T01:20:28;260.20;;;249.00;;
70416;SDS011;57839;51.332;12.410;2023-11-21T01:22:54;245.95;;;235.68;;
70416;SDS011;57839;51.332;12.410;2023-11-21T01:25:20;220.48;;;211.18;;
70416;SDS011;57839;51.332;12.410;2023-11-21T01:27:46;236.18;;;226.15;;
70416;SDS011;57839;51.332;12.410;2023-11-21T01:30:12;233.18;;;223.05;;
70416;SDS011;57839;51.332;12.410;2023-11-21T01:32:37;222.05;;;212.90;;
70416;SDS011;57839;51.332;12.410;2023-11-21T01:35:04;216.65;;;207.45;;
70416;SDS011;57839;51.332;12.410;2023-11-21T01:37:32;230.98;;;221.70;;
70416;SDS011;57839;51.332;12.410;2023-11-21T01:39:58;232.45;;;222.65;;
70416;SDS011;57839;51.332;12.410;2023-11-21T01:42:24;226.75;;;216.98;;
70416;SDS011;57839;51.332;12.410;2023-11-21T01:44:50;253.13;;;242.52;;
70416;SDS011;57839;51.332;12.410;2023-11-21T01:47:16;253.07;;;242.10;;
70416;SDS011;57839;51.332;12.410;2023-11-21T01:49:45;280.58;;;269.48;;
70416;SDS011;57839;51.332;12.410;2023-11-21T01:52:12;288.98;;;277.02;;
70416;SDS011;57839;51.332;12.410;2023-11-21T01:54:38;268.58;;;257.60;;
70416;SDS011;57839;51.332;12.410;2023-11-21T01:57:04;243.18;;;232.93;;
70416;SDS011;57839;51.332;12.410;2023-11-21T01:59:34;272.75;;;261.63;;
70416;SDS011;57839;51.332;12.410;2023-11-21T02:02:07;246.63;;;236.40;;
70416;SDS011;57839;51.332;12.410;2023-11-21T02:04:33;282.00;;;270.52;;
70416;SDS011;57839;51.332;12.410;2023-11-21T02:06:59;292.98;;;280.92;;
70416;SDS011;57839;51.332;12.410;2023-11-21T02:09:26;288.95;;;277.17;;
70416;SDS011;57839;51.332;12.410;2023-11-21T02:11:52;279.60;;;268.00;;
70416;SDS011;57839;51.332;12.410;2023-11-21T02:14:19;286.48;;;275.25;;
70416;SDS011;57839;51.332;12.410;2023-11-21T02:16:48;315.30;;;302.48;;
70416;SDS011;57839;51.332;12.410;2023-11-21T02:19:17;295.55;;;283.58;;
70416;SDS011;57839;51.332;12.410;2023-11-21T02:21:45;328.05;;;314.77;;
70416;SDS011;57839;51.332;12.410;2023-11-21T02:24:13;253.00;;;243.05;;
70416;SDS011;57839;51.332;12.410;2023-11-21T02:26:38;319.05;;;306.35;;
70416;SDS011;57839;51.332;12.410;2023-11-21T02:29:04;318.10;;;305.20;;
70416;SDS011;57839;51.332;12.410;2023-11-21T02:31:29;321.25;;;308.38;;
70416;SDS011;57839;51.332;12.410;2023-11-21T02:33:55;308.83;;;296.17;;
70416;SDS011;57839;51.332;12.410;2023-11-21T02:36:21;294.88;;;282.60;;
70416;SDS011;57839;51.332;12.410;2023-11-21T02:38:47;291.45;;;279.38;;
70416;SDS011;57839;51.332;12.410;2023-11-21T02:41:12;279.83;;;268.35;;
70416;SDS011;57839;51.332;12.410;2023-11-21T02:43:38;262.55;;;252.32;;
70416;SDS011;57839;51.332;12.410;2023-11-21T02:46:04;275.30;;;264.33;;
70416;SDS011;57839;51.332;12.410;2023-11-21T02:48:29;309.80;;;296.80;;
70416;SDS011;57839;51.332;12.410;2023-11-21T02:50:56;270.92;;;259.60;;
70416;SDS011;57839;51.332;12.410;2023-11-21T02:53:21;349.73;;;325.63;;
70416;SDS011;57839;51.332;12.410;2023-11-21T02:55:47;345.17;;;328.15;;
70416;SDS011;57839;51.332;12.410;2023-11-21T02:58:13;205.18;;;196.48;;
70416;SDS011;57839;51.332;12.410;2023-11-21T03:00:38;264.90;;;253.82;;
70416;SDS011;57839;51.332;12.410;2023-11-21T03:03:07;264.08;;;253.27;;
70416;SDS011;57839;51.332;12.410;2023-11-21T03:05:33;250.52;;;240.18;;
70416;SDS011;57839;51.332;12.410;2023-11-21T03:08:00;287.77;;;275.58;;
70416;SDS011;57839;51.332;12.410;2023-11-21T03:10:26;308.55;;;295.92;;
70416;SDS011;57839;51.332;12.410;2023-11-21T03:12:52;302.95;;;290.00;;
70416;SDS011;57839;51.332;12.410;2023-11-21T03:15:18;290.77;;;277.08;;
70416;SDS011;57839;51.332;12.410;2023-11-21T03:17:43;251.13;;;239.80;;
70416;SDS011;57839;51.332;12.410;2023-11-21T03:20:09;227.68;;;218.18;;
70416;SDS011;57839;51.332;12.410;2023-11-21T03:22:36;289.52;;;277.00;;
70416;SDS011;57839;51.332;12.410;2023-11-21T03:25:03;235.13;;;224.95;;
70416;SDS011;57839;51.332;12.410;2023-11-21T03:27:30;319.33;;;306.00;;
70416;SDS011;57839;51.332;12.410;2023-11-21T03:29:55;287.38;;;275.30;;
70416;SDS011;57839;51.332;12.410;2023-11-21T03:32:21;283.50;;;271.77;;
70416;SDS011;57839;51.332;12.410;2023-11-21T03:34:53;306.23;;;293.38;;
70416;SDS011;57839;51.332;12.410;2023-11-21T03:37:23;342.73;;;325.10;;
70416;SDS011;57839;51.332;12.410;2023-11-21T03:39:49;344.67;;;329.33;;
70416;SDS011;57839;51.332;12.410;2023-11-21T03:42:15;299.67;;;286.92;;
70416;SDS011;57839;51.332;12.410;2023-11-21T03:44:41;277.88;;;265.85;;
70416;SDS011;57839;51.332;12.410;2023-11-21T03:47:07;297.52;;;285.13;;
70416;SDS011;57839;51.332;12.410;2023-11-21T03:49:32;299.88;;;287.88;;
70416;SDS011;57839;51.332;12.410;2023-11-21T03:51:58;300.95;;;288.17;;
70416;SDS011;57839;51.332;12.410;2023-11-21T03:54:24;323.38;;;309.95;;
70416;SDS011;57839;51.332;12.410;2023-11-21T03:56:49;314.27;;;301.00;;
70416;SDS011;57839;51.332;12.410;2023-11-21T03:59:15;323.42;;;309.95;;
70416;SDS011;57839;51.332;12.410;2023-11-21T04:01:41;298.55;;;286.30;;
70416;SDS011;57839;51.332;12.410;2023-11-21T04:04:06;305.98;;;293.05;;
70416;SDS011;57839;51.332;12.410;2023-11-21T04:06:31;332.65;;;318.33;;
70416;SDS011;57839;51.332;12.410;2023-11-21T04:08:58;322.15;;;308.70;;
70416;SDS011;57839;51.332;12.410;2023-11-21T04:11:23;302.60;;;289.95;;
70416;SDS011;57839;51.332;12.410;2023-11-21T04:13:49;310.10;;;296.65;;
70416;SDS011;57839;51.332;12.410;2023-11-21T04:16:14;265.27;;;254.05;;
70416;SDS011;57839;51.332;12.410;2023-11-21T04:18:40;306.40;;;293.67;;
70416;SDS011;57839;51.332;12.410;2023-11-21T04:21:06;348.98;;;334.33;;
70416;SDS011;57839;51.332;12.410;2023-11-21T04:23:33;347.23;;;332.17;;
70416;SDS011;57839;51.332;12.410;2023-11-21T04:25:59;298.40;;;286.23;;
70416;SDS011;57839;51.332;12.410;2023-11-21T04:28:25;331.83;;;317.90;;
70416;SDS011;57839;51.332;12.410;2023-11-21T04:30:51;337.05;;;322.88;;
70416;SDS011;57839;51.332;12.410;2023-11-21T04:33:16;291.55;;;279.48;;
70416;SDS011;57839;51.332;12.410;2023-11-21T04:35:42;315.15;;;301.40;;
70416;SDS011;57839;51.332;12.410;2023-11-21T04:38:07;335.67;;;321.42;;
70416;SDS011;57839;51.332;12.410;2023-11-21T04:40:33;304.00;;;291.45;;
70416;SDS011;57839;51.332;12.410;2023-11-21T04:42:59;311.50;;;298.63;;
70416;SDS011;57839;51.332;12.410;2023-11-21T04:45:24;290.13;;;278.10;;
70416;SDS011;57839;51.332;12.410;2023-11-21T04:47:50;303.45;;;290.48;;
70416;SDS011;57839;51.332;12.410;2023-11-21T04:50:16;289.58;;;277.08;;
70416;SDS011;57839;51.332;12.410;2023-11-21T04:52:42;283.92;;;271.40;;
70416;SDS011;57839;51.332;12.410;2023-11-21T04:55:08;282.33;;;270.05;;
70416;SDS011;57839;51.332;12.410;2023-11-21T04:57:35;309.33;;;296.23;;
70416;SDS011;57839;51.332;12.410;2023-11-21T05:00:02;310.30;;;297.42;;
70416;SDS011;57839;51.332;12.410;2023-11-21T05:02:31;306.42;;;293.92;;
70416;SDS011;57839;51.332;12.410;2023-11-21T05:04:59;303.58;;;290.48;;
70416;SDS011;57839;51.332;12.410;2023-11-21T05:07:25;270.92;;;259.13;;
70416;SDS011;57839;51.332;12.410;2023-11-21T05:09:56;309.05;;;296.05;;
70416;SDS011;57839;51.332;12.410;2023-11-21T05:12:22;339.45;;;325.00;;
70416;SDS011;57839;51.332;12.410;2023-11-21T05:14:48;373.02;;;356.80;;
70416;SDS011;57839;51.332;12.410;2023-11-21T05:17:14;314.98;;;301.05;;
70416;SDS011;57839;51.332;12.410;2023-11-21T05:19:40;279.17;;;267.08;;
70416;SDS011;57839;51.332;12.410;2023-11-21T05:22:06;271.65;;;260.00;;
70416;SDS011;57839;51.332;12.410;2023-11-21T05:24:31;286.67;;;274.27;;
70416;SDS011;57839;51.332;12.410;2023-11-21T05:26:57;310.75;;;297.20;;
70416;SDS011;57839;51.332;12.410;2023-11-21T05:29:22;254.45;;;243.32;;
70416;SDS011;57839;51.332;12.410;2023-11-21T05:31:48;262.48;;;251.07;;
70416;SDS011;57839;51.332;12.410;2023-11-21T05:34:14;300.42;;;287.33;;
70416;SDS011;57839;51.332;12.410;2023-11-21T05:36:42;348.40;;;333.58;;
70416;SDS011;57839;51.332;12.410;2023-11-21T05:39:08;281.75;;;269.50;;
70416;SDS011;57839;51.332;12.410;2023-11-21T05:41:35;298.67;;;285.95;;
70416;SDS011;57839;51.332;12.410;2023-11-21T05:44:00;306.08;;;293.05;;
70416;SDS011;57839;51.332;12.410;2023-11-21T05:46:27;276.60;;;264.85;;
70416;SDS011;57839;51.332;12.410;2023-11-21T05:48:52;337.40;;;322.77;;
70416;SDS011;57839;51.332;12.410;2023-11-21T05:51:18;270.70;;;259.13;;
70416;SDS011;57839;51.332;12.410;2023-11-21T05:53:43;281.83;;;269.83;;
70416;SDS011;57839;51.332;12.410;2023-11-21T05:56:09;334.58;;;320.08;;
70416;SDS011;57839;51.332;12.410;2023-11-21T05:58:35;269.23;;;258.08;;
70416;SDS011;57839;51.332;12.410;2023-11-21T06:01:00;300.23;;;287.58;;
70416;SDS011;57839;51.332;12.410;2023-11-21T06:03:26;294.15;;;282.10;;
70416;SDS011;57839;51.332;12.410;2023-11-21T06:05:51;332.55;;;318.48;;
70416;SDS011;57839;51.332;12.410;2023-11-21T06:08:17;313.70;;;300.00;;
70416;SDS011;57839;51.332;12.410;2023-11-21T06:10:43;342.13;;;327.15;;
70416;SDS011;57839;51.332;12.410;2023-11-21T06:13:09;325.85;;;311.85;;
70416;SDS011;57839;51.332;12.410;2023-11-21T06:15:35;294.08;;;281.55;;
70416;SDS011;57839;51.332;12.410;2023-11-21T06:18:01;302.08;;;289.52;;
70416;SDS011;57839;51.332;12.410;2023-11-21T06:20:27;283.77;;;271.52;;
70416;SDS011;57839;51.332;12.410;2023-11-21T06:22:53;294.27;;;281.20;;
70416;SDS011;57839;51.332;12.410;2023-11-21T06:25:19;282.42;;;270.08;;
70416;SDS011;57839;51.332;12.410;2023-11-21T06:27:45;296.55;;;283.35;;
70416;SDS011;57839;51.332;12.410;2023-11-21T06:30:12;277.65;;;265.00;;
70416;SDS011;57839;51.332;12.410;2023-11-21T06:32:40;307.25;;;294.27;;
70416;SDS011;57839;51.332;12.410;2023-11-21T06:35:07;310.08;;;296.40;;
70416;SDS011;57839;51.332;12.410;2023-11-21T06:37:37;281.40;;;269.27;;
70416;SDS011;57839;51.332;12.410;2023-11-21T06:40:02;261.35;;;249.40;;
70416;SDS011;57839;51.332;12.410;2023-11-21T06:42:31;268.92;;;257.55;;
70416;SDS011;57839;51.332;12.410;2023-11-21T06:44:58;287.08;;;274.40;;
70416;SDS011;57839;51.332;12.410;2023-11-21T06:47:24;290.30;;;277.65;;
70416;SDS011;57839;51.332;12.410;2023-11-21T06:49:50;205.20;;;196.15;;
70416;SDS011;57839;51.332;12.410;2023-11-21T06:52:16;218.63;;;208.50;;
70416;SDS011;57839;51.332;12.410;2023-11-21T06:54:42;218.18;;;208.55;;
70416;SDS011;57839;51.332;12.410;2023-11-21T06:57:07;238.73;;;228.27;;
70416;SDS011;57839;51.332;12.410;2023-11-21T06:59:33;230.07;;;219.57;;
70416;SDS011;57839;51.332;12.410;2023-11-21T07:01:58;229.82;;;219.98;;
70416;SDS011;57839;51.332;12.410;2023-11-21T07:04:24;250.15;;;239.23;;
70416;SDS011;57839;51.332;12.410;2023-11-21T07:06:51;216.93;;;207.00;;
70416;SDS011;57839;51.332;12.410;2023-11-21T07:09:17;235.55;;;224.98;;
70416;SDS011;57839;51.332;12.410;2023-11-21T07:11:42;206.93;;;197.73;;
70416;SDS011;57839;51.332;12.410;2023-11-21T07:14:08;237.45;;;227.18;;
70416;SDS011;57839;51.332;12.410;2023-11-21T07:16:34;211.80;;;202.18;;
70416;SDS011;57839;51.332;12.410;2023-11-21T07:19:03;203.93;;;194.85;;
70416;SDS011;57839;51.332;12.410;2023-11-21T07:21:31;209.15;;;200.30;;
70416;SDS011;57839;51.332;12.410;2023-11-21T07:23:57;227.55;;;217.73;;
70416;SDS011;57839;51.332;12.410;2023-11-21T07:26:23;170.82;;;163.32;;
70416;SDS011;57839;51.332;12.410;2023-11-21T07:28:50;192.35;;;183.77;;
70416;SDS011;57839;51.332;12.410;2023-11-21T07:31:15;185.50;;;176.57;;
70416;SDS011;57839;51.332;12.410;2023-11-21T07:33:41;223.48;;;213.60;;
70416;SDS011;57839;51.332;12.410;2023-11-21T07:36:07;206.43;;;197.48;;
70416;SDS011;57839;51.332;12.410;2023-11-21T07:38:32;193.35;;;184.50;;
70416;SDS011;57839;51.332;12.410;2023-11-21T07:40:58;190.15;;;181.43;;
70416;SDS011;57839;51.332;12.410;2023-11-21T07:43:26;188.00;;;178.93;;
70416;SDS011;57839;51.332;12.410;2023-11-21T07:45:52;170.95;;;162.55;;
70416;SDS011;57839;51.332;12.410;2023-11-21T07:48:17;203.00;;;192.73;;
70416;SDS011;57839;51.332;12.410;2023-11-21T07:50:43;186.60;;;176.98;;
70416;SDS011;57839;51.332;12.410;2023-11-21T07:53:08;193.38;;;183.27;;
70416;SDS011;57839;51.332;12.410;2023-11-21T07:55:34;178.57;;;169.18;;
70416;SDS011;57839;51.332;12.410;2023-11-21T07:58:01;173.95;;;164.98;;
70416;SDS011;57839;51.332;12.410;2023-11-21T08:00:27;201.45;;;191.30;;
70416;SDS011;57839;51.332;12.410;2023-11-21T08:02:55;197.80;;;187.82;;
70416;SDS011;57839;51.332;12.410;2023-11-21T08:05:20;196.57;;;187.23;;
70416;SDS011;57839;51.332;12.410;2023-11-21T08:07:46;198.57;;;189.23;;
70416;SDS011;57839;51.332;12.410;2023-11-21T08:10:12;197.00;;;187.32;;
70416;SDS011;57839;51.332;12.410;2023-11-21T08:12:37;194.80;;;185.25;;
70416;SDS011;57839;51.332;12.410;2023-11-21T08:15:04;243.30;;;232.75;;
70416;SDS011;57839;51.332;12.410;2023-11-21T08:17:30;181.45;;;173.15;;
70416;SDS011;57839;51.332;12.410;2023-11-21T08:19:58;191.30;;;182.45;;
70416;SDS011;57839;51.332;12.410;2023-11-21T08:22:23;183.63;;;175.00;;
70416;SDS011;57839;51.332;12.410;2023-11-21T08:24:50;203.10;;;194.25;;
70416;SDS011;57839;51.332;12.410;2023-11-21T08:27:15;204.25;;;195.45;;
70416;SDS011;57839;51.332;12.410;2023-11-21T08:29:41;167.55;;;160.02;;
70416;SDS011;57839;51.332;12.410;2023-11-21T08:32:08;187.55;;;179.30;;
70416;SDS011;57839;51.332;12.410;2023-11-21T08:34:33;229.73;;;219.88;;
70416;SDS011;57839;51.332;12.410;2023-11-21T08:36:59;176.13;;;168.27;;
70416;SDS011;57839;51.332;12.410;2023-11-21T08:39:25;194.38;;;185.60;;
70416;SDS011;57839;51.332;12.410;2023-11-21T08:41:52;211.15;;;202.07;;
70416;SDS011;57839;51.332;12.410;2023-11-21T08:44:17;220.90;;;211.35;;
70416;SDS011;57839;51.332;12.410;2023-11-21T08:46:46;173.85;;;165.82;;
70416;SDS011;57839;51.332;12.410;2023-11-21T08:49:12;179.13;;;171.25;;
70416;SDS011;57839;51.332;12.410;2023-11-21T08:51:38;228.40;;;218.43;;
70416;SDS011;57839;51.332;12.410;2023-11-21T08:54:04;228.13;;;218.43;;
70416;SDS011;57839;51.332;12.410;2023-11-21T08:56:33;236.98;;;227.35;;
70416;SDS011;57839;51.332;12.410;2023-11-21T08:58:59;248.93;;;238.55;;
70416;SDS011;57839;51.332;12.410;2023-11-21T09:01:28;229.25;;;219.48;;
70416;SDS011;57839;51.332;12.410;2023-11-21T09:03:59;193.98;;;185.57;;
70416;SDS011;57839;51.332;12.410;2023-11-21T09:06:25;235.05;;;224.93;;
70416;SDS011;57839;51.332;12.410;2023-11-21T09:08:50;260.35;;;249.38;;
70416;SDS011;57839;51.332;12.410;2023-11-21T09:11:16;219.30;;;209.88;;
70416;SDS011;57839;51.332;12.410;2023-11-21T09:13:42;245.82;;;235.70;;
70416;SDS011;57839;51.332;12.410;2023-11-21T09:16:20;249.43;;;238.80;;
70416;SDS011;57839;51.332;12.410;2023-11-21T09:18:56;288.85;;;276.58;;
70416;SDS011;57839;51.332;12.410;2023-11-21T09:21:21;255.43;;;244.65;;
70416;SDS011;57839;51.332;12.410;2023-11-21T09:23:48;268.27;;;257.05;;
70416;SDS011;57839;51.332;12.410;2023-11-21T09:26:14;259.58;;;248.40;;
70416;SDS011;57839;51.332;12.410;2023-11-21T09:28:41;227.85;;;218.45;;
70416;SDS011;57839;51.332;12.410;2023-11-21T09:31:11;229.00;;;219.48;;
70416;SDS011;57839;51.332;12.410;2023-11-21T09:33:37;273.73;;;262.08;;
70416;SDS011;57839;51.332;12.410;2023-11-21T09:36:03;255.23;;;244.20;;
70416;SDS011;57839;51.332;12.410;2023-11-21T09:38:30;256.10;;;245.32;;
70416;SDS011;57839;51.332;12.410;2023-11-21T09:40:56;282.58;;;270.98;;
70416;SDS011;57839;51.332;12.410;2023-11-21T09:43:24;281.30;;;269.17;;
70416;SDS011;57839;51.332;12.410;2023-11-21T09:45:56;242.45;;;232.38;;
70416;SDS011;57839;51.332;12.410;2023-11-21T09:48:26;277.42;;;265.73;;
70416;SDS011;57839;51.332;12.410;2023-11-21T09:50:52;253.48;;;242.70;;
70416;SDS011;57839;51.332;12.410;2023-11-21T09:53:19;253.23;;;242.43;;
70416;SDS011;57839;51.332;12.410;2023-11-21T09:55:46;257.15;;;246.25;;
70416;SDS011;57839;51.332;12.410;2023-11-21T09:58:16;259.67;;;248.68;;
70416;SDS011;57839;51.332;12.410;2023-11-21T10:00:43;270.73;;;259.65;;
70416;SDS011;57839;51.332;12.410;2023-11-21T10:03:10;258.55;;;248.02;;
70416;SDS011;57839;51.332;12.410;2023-11-21T10:05:37;255.23;;;244.70;;
70416;SDS011;57839;51.332;12.410;2023-11-21T10:08:10;271.02;;;259.38;;
70416;SDS011;57839;51.332;12.410;2023-11-21T10:10:36;275.63;;;264.13;;
70416;SDS011;57839;51.332;12.410;2023-11-21T10:13:04;279.15;;;267.52;;
70416;SDS011;57839;51.332;12.410;2023-11-21T10:15:35;214.32;;;205.55;;
70416;SDS011;57839;51.332;12.410;2023-11-21T10:18:04;237.38;;;227.55;;
70416;SDS011;57839;51.332;12.410;2023-11-21T10:20:32;248.65;;;238.15;;
70416;SDS011;57839;51.332;12.410;2023-11-21T10:22:59;214.00;;;205.13;;
70416;SDS011;57839;51.332;12.410;2023-11-21T10:25:28;204.05;;;195.15;;
70416;SDS011;57839;51.332;12.410;2023-11-21T10:28:02;230.15;;;220.38;;
70416;SDS011;57839;51.332;12.410;2023-11-21T10:30:34;317.27;;;304.17;;
70416;SDS011;57839;51.332;12.410;2023-11-21T10:33:02;336.25;;;321.90;;
70416;SDS011;57839;51.332;12.410;2023-11-21T10:35:44;188.38;;;180.32;;
70416;SDS011;57839;51.332;12.410;2023-11-21T10:38:12;305.77;;;293.20;;
70416;SDS011;57839;51.332;12.410;2023-11-21T10:40:40;335.08;;;320.98;;
70416;SDS011;57839;51.332;12.410;2023-11-21T10:43:07;258.63;;;248.05;;
70416;SDS011;57839;51.332;12.410;2023-11-21T10:45:38;210.30;;;201.60;;
70416;SDS011;57839;51.332;12.410;2023-11-21T10:48:07;281.75;;;270.02;;
70416;SDS011;57839;51.332;12.410;2023-11-21T10:50:34;287.77;;;276.13;;
70416;SDS011;57839;51.332;12.410;2023-11-21T10:53:01;267.33;;;256.40;;
70416;SDS011;57839;51.332;12.410;2023-11-21T10:55:30;303.63;;;290.83;;
70416;SDS011;57839;51.332;12.410;2023-11-21T10:58:04;257.55;;;247.02;;
70416;SDS011;57839;51.332;12.410;2023-11-21T11:00:31;269.60;;;258.30;;
70416;SDS011;57839;51.332;12.410;2023-11-21T11:02:58;308.88;;;295.75;;
70416;SDS011;57839;51.332;12.410;2023-11-21T11:05:28;228.85;;;219.15;;
70416;SDS011;57839;51.332;12.410;2023-11-21T11:07:58;279.63;;;267.90;;
70416;SDS011;57839;51.332;12.410;2023-11-21T11:10:28;319.55;;;306.33;;
70416;SDS011;57839;51.332;12.410;2023-11-21T11:12:57;269.08;;;257.85;;
70416;SDS011;57839;51.332;12.410;2023-11-21T11:15:26;257.42;;;246.63;;
70416;SDS011;57839;51.332;12.410;2023-11-21T11:17:53;298.10;;;285.60;;
70416;SDS011;57839;51.332;12.410;2023-11-21T11:20:23;334.17;;;319.75;;
70416;SDS011;57839;51.332;12.410;2023-11-21T11:28:15;346.40;;;331.10;;
70416;SDS011;57839;51.332;12.410;2023-11-21T11:31:02;365.05;;;348.77;;
70416;SDS011;57839;51.332;12.410;2023-11-21T11:33:41;351.92;;;334.65;;
70416;SDS011;57839;51.332;12.410;2023-11-21T11:38:39;335.70;;;320.45;;
70416;SDS011;57839;51.332;12.410;2023-11-21T11:41:11;322.75;;;307.65;;
70416;SDS011;57839;51.332;12.410;2023-11-21T11:43:38;328.40;;;313.50;;
70416;SDS011;57839;51.332;12.410;2023-11-21T11:46:10;293.58;;;280.10;;
70416;SDS011;57839;51.332;12.410;2023-11-21T11:48:40;321.70;;;307.40;;
70416;SDS011;57839;51.332;12.410;2023-11-21T11:51:06;325.73;;;310.63;;
70416;SDS011;57839;51.332;12.410;2023-11-21T11:53:40;345.88;;;329.50;;
70416;SDS011;57839;51.332;12.410;2023-11-21T11:56:22;338.70;;;322.80;;
70416;SDS011;57839;51.332;12.410;2023-11-21T11:58:53;317.98;;;302.58;;
70416;SDS011;57839;51.332;12.410;2023-11-21T12:01:24;327.30;;;311.95;;
70416;SDS011;57839;51.332;12.410;2023-11-21T12:06:56;278.02;;;265.23;;
70416;SDS011;57839;51.332;12.410;2023-11-21T12:09:25;265.50;;;252.88;;
70416;SDS011;57839;51.332;12.410;2023-11-21T12:11:52;309.48;;;294.90;;
70416;SDS011;57839;51.332;12.410;2023-11-21T12:14:21;311.35;;;296.73;;
70416;SDS011;57839;51.332;12.410;2023-11-21T12:16:48;336.10;;;321.60;;
70416;SDS011;57839;51.332;12.410;2023-11-21T12:19:14;280.35;;;267.98;;
70416;SDS011;57839;51.332;12.410;2023-11-21T12:21:40;272.40;;;259.42;;
70416;SDS011;57839;51.332;12.410;2023-11-21T12:24:14;272.75;;;260.92;;
70416;SDS011;57839;51.332;12.410;2023-11-21T12:26:41;347.02;;;331.90;;
70416;SDS011;57839;51.332;12.410;2023-11-21T12:29:08;303.10;;;289.40;;
70416;SDS011;57839;51.332;12.410;2023-11-21T12:31:34;308.17;;;294.85;;
70416;SDS011;57839;51.332;12.410;2023-11-21T12:34:00;285.60;;;272.90;;
70416;SDS011;57839;51.332;12.410;2023-11-21T12:36:26;311.02;;;297.95;;
70416;SDS011;57839;51.332;12.410;2023-11-21T12:38:54;261.85;;;250.32;;
70416;SDS011;57839;51.332;12.410;2023-11-21T12:41:19;293.33;;;280.50;;
70416;SDS011;57839;51.332;12.410;2023-11-21T12:43:46;322.85;;;309.10;;
70416;SDS011;57839;51.332;12.410;2023-11-21T12:46:13;294.27;;;281.35;;
70416;SDS011;57839;51.332;12.410;2023-11-21T12:48:43;274.45;;;262.17;;
70416;SDS011;57839;51.332;12.410;2023-11-21T12:51:11;281.90;;;268.85;;
70416;SDS011;57839;51.332;12.410;2023-11-21T12:53:39;289.50;;;276.40;;
70416;SDS011;57839;51.332;12.410;2023-11-21T12:56:14;318.20;;;303.63;;
70416;SDS011;57839;51.332;12.410;2023-11-21T12:58:44;351.83;;;334.73;;
70416;SDS011;57839;51.332;12.410;2023-11-21T13:01:12;332.55;;;316.17;;
70416;SDS011;57839;51.332;12.410;2023-11-21T13:03:43;314.80;;;299.00;;
70416;SDS011;57839;51.332;12.410;2023-11-21T13:06:10;306.05;;;291.25;;
70416;SDS011;57839;51.332;12.410;2023-11-21T13:08:37;284.40;;;269.90;;
70416;SDS011;57839;51.332;12.410;2023-11-21T13:11:04;291.40;;;276.90;;
70416;SDS011;57839;51.332;12.410;2023-11-21T13:13:31;236.35;;;224.00;;
70416;SDS011;57839;51.332;12.410;2023-11-21T13:16:01;269.23;;;256.13;;
70416;SDS011;57839;51.332;12.410;2023-11-21T13:18:30;259.38;;;245.95;;
70416;SDS011;57839;51.332;12.410;2023-11-21T13:20:57;232.55;;;220.45;;
70416;SDS011;57839;51.332;12.410;2023-11-21T13:23:24;282.40;;;268.80;;
70416;SDS011;57839;51.332;12.410;2023-11-21T13:25:51;265.02;;;251.90;;
70416;SDS011;57839;51.332;12.410;2023-11-21T13:28:20;240.98;;;228.68;;
70416;SDS011;57839;51.332;12.410;2023-11-21T13:30:48;265.83;;;252.27;;
70416;SDS011;57839;51.332;12.410;2023-11-21T13:33:17;272.95;;;258.35;;
70416;SDS011;57839;51.332;12.410;2023-11-21T13:35:47;210.75;;;199.88;;
70416;SDS011;57839;51.332;12.410;2023-11-21T13:38:15;206.60;;;195.43;;
70416;SDS011;57839;51.332;12.410;2023-11-21T13:40:46;209.20;;;198.52;;
70416;SDS011;57839;51.332;12.410;2023-11-21T13:43:15;245.45;;;233.90;;
70416;SDS011;57839;51.332;12.410;2023-11-21T13:45:46;275.17;;;260.70;;
70416;SDS011;57839;51.332;12.410;2023-11-21T13:48:13;250.45;;;237.77;;
70416;SDS011;57839;51.332;12.410;2023-11-21T13:50:39;210.02;;;198.38;;
70416;SDS011;57839;51.332;12.410;2023-11-21T13:53:14;264.67;;;252.02;;